Time;durP1;ratioP1;P1;durP2;ratioP2;P2;SDS_P1;SDS_P2;PMS_P1;PMS_P2;Temp;Humidity;BMP_temperature;BMP_pressure;BME280_temperature;BME280_humidity;BME280_pressure;Samples;Min_cycle;Max_cycle;Signal;HPM_P1;HPM_P2
2022/05/07 00:00:48;;;;;;;50.72;34.25;;;12.80;99.90;;;;;;5001345;28;20046;-92
2022/05/07 00:03:14;;;;;;;42.60;30.90;;;12.80;99.90;;;;;;5001858;28;20491;-94
2022/05/07 00:05:40;;;;;;;49.17;32.50;;;12.80;99.90;;;;;;5002227;28;20049;-93
2022/05/07 00:08:06;;;;;;;55.22;35.15;;;12.70;99.90;;;;;;5001356;28;20049;-93
2022/05/07 00:10:33;;;;;;;49.28;35.05;;;12.70;99.90;;;;;;5001244;28;20139;-94
2022/05/07 00:12:59;;;;;;;55.92;34.80;;;12.60;99.90;;;;;;5005183;28;20132;-96
2022/05/07 00:15:25;;;;;;;56.83;37.05;;;12.50;99.90;;;;;;5005517;28;20048;-96
2022/05/07 00:18:10;;;;;;;49.10;34.70;;;12.60;99.90;;;;;;5005322;28;20049;-96
2022/05/07 00:20:38;;;;;;;53.33;36.72;;;12.60;99.90;;;;;;5005437;28;20535;-94
2022/05/07 00:23:05;;;;;;;57.72;37.42;;;12.60;99.90;;;;;;4990905;28;20045;-96
2022/05/07 00:25:32;;;;;;;48.25;32.65;;;12.60;99.90;;;;;;5007778;28;20045;-96
2022/05/07 00:27:58;;;;;;;48.88;33.80;;;12.60;99.90;;;;;;5008450;28;20084;-95
2022/05/07 00:30:24;;;;;;;45.95;32.72;;;12.60;99.90;;;;;;5006145;28;20049;-94
2022/05/07 00:32:51;;;;;;;53.95;36.67;;;12.50;99.90;;;;;;5001279;28;20495;-94
2022/05/07 00:35:17;;;;;;;48.88;33.33;;;12.70;99.90;;;;;;4984984;28;20050;-93
2022/05/07 00:37:45;;;;;;;49.55;32.55;;;12.60;99.90;;;;;;4989365;28;20064;-96
2022/05/07 00:40:11;;;;;;;45.33;31.17;;;12.60;99.90;;;;;;5007121;28;20037;-96
2022/05/07 00:42:38;;;;;;;49.25;33.28;;;12.70;99.90;;;;;;5007625;28;20049;-96
2022/05/07 00:45:05;;;;;;;58.35;37.53;;;12.70;99.90;;;;;;5023765;28;20041;-96
2022/05/07 00:47:32;;;;;;;51.63;34.17;;;12.70;99.90;;;;;;5023181;28;20045;-96
2022/05/07 00:52:46;;;;;;;54.17;35.97;;;12.70;99.90;;;;;;5039181;28;20499;-96
2022/05/07 00:55:14;;;;;;;48.35;32.70;;;12.80;99.90;;;;;;4990562;28;20049;-96
2022/05/07 00:57:41;;;;;;;53.10;34.78;;;12.90;99.90;;;;;;4990448;28;20046;-96
2022/05/07 01:00:09;;;;;;;56.97;35.70;;;12.80;99.90;;;;;;4991092;28;20048;-96
2022/05/07 01:02:37;;;;;;;59.15;38.38;;;12.90;99.90;;;;;;4993047;28;20038;-95
2022/05/07 01:05:06;;;;;;;61.92;39.17;;;12.90;99.90;;;;;;4992358;28;20079;-96
2022/05/07 01:07:36;;;;;;;59.30;37.58;;;12.90;99.90;;;;;;5010180;28;20045;-95
2022/05/07 01:10:04;;;;;;;62.00;39.20;;;12.90;99.90;;;;;;5009651;28;20105;-96
2022/05/07 01:12:31;;;;;;;57.75;38.60;;;12.90;99.90;;;;;;5004640;28;20041;-93
2022/05/07 01:14:58;;;;;;;61.67;39.92;;;12.90;99.90;;;;;;4989249;28;20049;-96
2022/05/07 01:17:25;;;;;;;64.22;39.70;;;12.90;99.90;;;;;;5012207;28;20068;-96
2022/05/07 01:19:53;;;;;;;58.72;37.47;;;13.00;99.90;;;;;;5012392;28;20442;-96
2022/05/07 01:22:22;;;;;;;58.13;36.92;;;12.90;99.90;;;;;;4995923;28;20106;-96
2022/05/07 01:24:48;;;;;;;48.83;32.20;;;12.90;99.90;;;;;;4995746;28;20118;-96
2022/05/07 01:27:17;;;;;;;54.42;36.28;;;12.90;99.90;;;;;;5012329;28;20049;-95
2022/05/07 01:29:44;;;;;;;59.75;37.63;;;12.90;99.90;;;;;;5026826;28;20493;-96
2022/05/07 01:32:10;;;;;;;59.58;36.58;;;12.90;99.90;;;;;;5009060;28;20045;-95
2022/05/07 01:34:36;;;;;;;63.78;39.25;;;12.90;99.90;;;;;;4992435;28;20041;-95
2022/05/07 01:37:03;;;;;;;65.07;38.70;;;12.90;99.90;;;;;;5007044;28;20041;-96
2022/05/07 01:39:29;;;;;;;57.60;37.92;;;12.90;99.90;;;;;;5026935;28;20105;-95
2022/05/07 01:41:56;;;;;;;58.55;37.97;;;12.90;99.90;;;;;;5009788;28;20526;-96
2022/05/07 01:44:22;;;;;;;62.60;39.67;;;12.90;99.90;;;;;;5009062;28;20088;-95
2022/05/07 01:49:34;;;;;;;59.70;38.53;;;12.90;99.90;;;;;;5022403;28;20132;-96
2022/05/07 01:52:00;;;;;;;58.55;36.00;;;12.80;99.90;;;;;;4992193;28;20061;-95
2022/05/07 01:54:27;;;;;;;61.22;37.38;;;12.90;99.90;;;;;;4974014;28;20065;-95
2022/05/07 01:56:53;;;;;;;58.20;38.60;;;12.90;99.90;;;;;;4989887;28;20041;-96
2022/05/07 01:59:20;;;;;;;60.20;37.10;;;12.90;99.90;;;;;;4973329;28;20042;-96
2022/05/07 02:01:47;;;;;;;54.95;36.17;;;12.90;99.90;;;;;;5006416;28;20105;-96
2022/05/07 02:04:14;;;;;;;56.42;35.88;;;12.90;99.90;;;;;;4990432;28;20052;-96
2022/05/07 02:06:40;;;;;;;57.20;36.85;;;12.90;99.90;;;;;;5006701;28;20141;-96
2022/05/07 02:09:08;;;;;;;57.25;35.55;;;12.90;99.90;;;;;;4990565;28;20048;-95
2022/05/07 02:11:34;;;;;;;58.00;36.15;;;12.90;99.90;;;;;;4987876;28;20057;-96
2022/05/07 02:14:00;;;;;;;60.47;36.50;;;13.00;99.90;;;;;;5001654;28;20049;-96
2022/05/07 02:16:27;;;;;;;55.75;35.10;;;12.90;99.90;;;;;;4991726;28;20041;-96
2022/05/07 02:18:53;;;;;;;58.42;36.30;;;12.90;99.90;;;;;;4976763;28;20046;-96
2022/05/07 02:21:19;;;;;;;58.70;35.88;;;12.90;99.90;;;;;;4993241;28;20041;-96
2022/05/07 02:23:46;;;;;;;62.53;36.47;;;13.00;99.90;;;;;;4993590;28;20041;-96
2022/05/07 02:26:12;;;;;;;55.75;35.63;;;13.00;99.90;;;;;;4972966;28;20041;-96
2022/05/07 02:28:45;;;;;;;55.17;34.80;;;13.00;99.90;;;;;;4990372;28;20075;-96
2022/05/07 02:31:11;;;;;;;58.13;35.88;;;13.10;99.90;;;;;;5004428;28;20128;-96
2022/05/07 02:33:37;;;;;;;57.90;36.17;;;13.00;99.90;;;;;;4972426;28;20042;-96
2022/05/07 02:36:04;;;;;;;56.47;36.67;;;13.00;99.90;;;;;;4989036;28;20137;-96
2022/05/07 02:38:31;;;;;;;55.60;36.30;;;13.10;99.90;;;;;;5004040;28;20042;-96
2022/05/07 02:43:41;;;;;;;54.25;34.15;;;13.10;99.90;;;;;;5020749;28;20042;-96
2022/05/07 02:46:09;;;;;;;57.55;34.50;;;13.10;99.90;;;;;;5003715;28;20049;-96
2022/05/07 02:48:36;;;;;;;54.80;34.55;;;13.10;99.90;;;;;;5003812;28;20057;-96
2022/05/07 02:51:03;;;;;;;56.28;34.50;;;13.00;99.90;;;;;;4995910;28;20053;-95
2022/05/07 02:53:30;;;;;;;55.67;34.17;;;13.10;99.90;;;;;;4991608;28;20049;-96
2022/05/07 02:55:56;;;;;;;53.42;34.55;;;13.10;99.90;;;;;;4975906;28;20045;-95
2022/05/07 02:58:23;;;;;;;46.00;31.98;;;13.10;99.90;;;;;;4994447;28;20395;-96
2022/05/07 03:00:49;;;;;;;48.92;32.80;;;13.10;99.90;;;;;;4973680;28;20083;-96
2022/05/07 03:03:16;;;;;;;48.25;33.17;;;13.20;99.90;;;;;;4959819;28;20034;-96
2022/05/07 03:05:43;;;;;;;43.58;30.88;;;13.10;99.90;;;;;;4991868;28;20049;-96
2022/05/07 03:08:09;;;;;;;46.25;32.03;;;13.00;99.90;;;;;;4990880;28;20056;-96
2022/05/07 03:10:41;;;;;;;45.05;29.30;;;13.00;99.90;;;;;;4991862;28;20067;-96
2022/05/07 03:13:08;;;;;;;47.55;31.33;;;13.00;99.90;;;;;;4993057;28;20109;-96
2022/05/07 03:15:34;;;;;;;53.53;32.05;;;13.00;99.90;;;;;;4961065;28;20041;-96
2022/05/07 03:18:00;;;;;;;45.10;31.25;;;13.00;99.90;;;;;;4975364;28;20099;-96
2022/05/07 03:20:27;;;;;;;46.88;31.70;;;13.00;99.90;;;;;;5007493;28;20045;-96
2022/05/07 03:22:53;;;;;;;50.17;32.08;;;13.00;99.90;;;;;;4976581;28;20364;-95
2022/05/07 03:25:21;;;;;;;47.10;31.88;;;12.90;99.90;;;;;;4991144;28;20045;-96
2022/05/07 03:27:48;;;;;;;43.13;30.73;;;13.00;99.90;;;;;;4991583;28;20048;-96
2022/05/07 03:30:14;;;;;;;38.08;27.33;;;13.00;99.90;;;;;;4991132;28;20494;-96
2022/05/07 03:32:40;;;;;;;41.97;28.08;;;12.90;99.90;;;;;;4990262;28;20108;-96
2022/05/07 03:35:10;;;;;;;40.83;28.05;;;12.90;99.90;;;;;;4992391;28;20045;-96
2022/05/07 03:37:36;;;;;;;45.15;31.55;;;12.80;99.90;;;;;;4976562;28;20049;-96
2022/05/07 03:40:03;;;;;;;46.13;32.15;;;12.90;99.90;;;;;;4976455;28;20049;-96
2022/05/07 03:42:33;;;;;;;40.88;27.83;;;12.80;99.90;;;;;;5008979;28;20060;-96
2022/05/07 03:45:00;;;;;;;42.45;29.20;;;12.80;99.90;;;;;;4993219;28;20095;-96
2022/05/07 03:47:27;;;;;;;39.03;28.35;;;12.80;99.90;;;;;;4993742;28;20072;-95
2022/05/07 03:49:53;;;;;;;41.70;29.48;;;12.70;99.90;;;;;;4993154;28;20045;-96
2022/05/07 03:55:04;;;;;;;41.80;29.60;;;12.70;99.90;;;;;;5007490;28;20050;-96
2022/05/07 03:57:31;;;;;;;48.55;33.03;;;12.70;99.90;;;;;;4991596;28;20049;-96
2022/05/07 03:59:57;;;;;;;45.72;31.02;;;12.70;99.90;;;;;;4991131;28;20046;-96
2022/05/07 04:02:24;;;;;;;37.60;28.55;;;12.70;99.90;;;;;;5008646;28;20045;-96
2022/05/07 04:04:51;;;;;;;41.90;28.88;;;12.70;99.90;;;;;;5009542;28;20038;-96
2022/05/07 04:07:17;;;;;;;39.67;28.45;;;12.60;99.90;;;;;;4992996;28;20060;-95
2022/05/07 04:09:44;;;;;;;35.08;26.05;;;12.60;99.90;;;;;;5010269;28;20041;-96
2022/05/07 04:12:11;;;;;;;36.95;27.55;;;12.70;99.90;;;;;;4992624;28;20549;-96
2022/05/07 04:14:37;;;;;;;38.05;28.05;;;12.70;99.90;;;;;;5008460;28;20045;-96
2022/05/07 04:17:04;;;;;;;37.97;28.33;;;12.70;99.90;;;;;;4994353;28;20056;-96
2022/05/07 04:19:35;;;;;;;41.58;30.67;;;12.70;99.90;;;;;;5026042;28;20049;-96
2022/05/07 04:22:01;;;;;;;37.53;28.15;;;12.70;99.90;;;;;;5026359;28;20057;-96
2022/05/07 04:24:28;;;;;;;41.20;29.15;;;12.70;99.90;;;;;;4996705;28;20052;-96
2022/05/07 04:26:55;;;;;;;41.28;28.33;;;12.70;99.90;;;;;;4997014;28;20048;-95
2022/05/07 04:29:21;;;;;;;45.85;31.23;;;12.70;99.90;;;;;;4989599;28;20076;-94
2022/05/07 04:31:48;;;;;;;40.90;31.05;;;12.70;99.90;;;;;;4986121;28;20052;-95
2022/05/07 04:34:15;;;;;;;46.88;33.22;;;12.70;99.90;;;;;;5011551;28;20487;-96
2022/05/07 04:36:44;;;;;;;50.83;33.20;;;12.60;99.90;;;;;;5012713;28;20040;-96
2022/05/07 04:39:11;;;;;;;45.70;33.10;;;12.60;99.90;;;;;;5011064;28;20037;-95
2022/05/07 04:41:37;;;;;;;48.40;31.52;;;12.60;99.90;;;;;;4998833;28;20038;-96
2022/05/07 04:44:05;;;;;;;43.30;30.65;;;12.60;99.90;;;;;;4997731;28;20077;-96
2022/05/07 04:46:31;;;;;;;42.25;30.90;;;12.60;99.90;;;;;;5016829;28;20542;-95
2022/05/07 04:48:57;;;;;;;52.72;33.88;;;12.60;99.90;;;;;;4999618;28;20041;-95
2022/05/07 04:51:23;;;;;;;43.95;31.33;;;12.60;99.90;;;;;;4997973;28;20056;-96
2022/05/07 04:53:50;;;;;;;44.97;33.40;;;12.60;99.90;;;;;;5032005;28;20042;-95
2022/05/07 04:56:16;;;;;;;43.65;30.20;;;12.60;99.90;;;;;;4999692;28;20052;-96
2022/05/07 04:58:43;;;;;;;49.47;33.72;;;12.60;99.90;;;;;;5015494;28;20041;-96
2022/05/07 05:01:09;;;;;;;45.08;32.67;;;12.60;99.90;;;;;;4998902;28;20037;-96
2022/05/07 05:03:36;;;;;;;51.90;33.10;;;12.60;99.90;;;;;;4999416;28;20095;-96
2022/05/07 05:06:02;;;;;;;50.97;34.63;;;12.70;99.90;;;;;;4998914;28;20049;-96
2022/05/07 05:08:30;;;;;;;53.53;34.78;;;12.70;99.90;;;;;;5013481;28;20042;-96
2022/05/07 05:10:58;;;;;;;49.22;34.45;;;12.70;99.90;;;;;;5013407;28;20065;-96
2022/05/07 05:13:25;;;;;;;49.55;34.80;;;12.70;99.90;;;;;;4997312;28;20049;-96
2022/05/07 05:15:51;;;;;;;49.35;33.72;;;12.70;99.90;;;;;;5013021;28;20030;-95
2022/05/07 05:18:18;;;;;;;48.67;33.95;;;12.70;99.90;;;;;;4994273;28;20056;-95
2022/05/07 05:20:44;;;;;;;48.60;32.85;;;12.70;99.90;;;;;;4992299;28;20041;-95
2022/05/07 05:23:11;;;;;;;50.17;34.33;;;12.70;99.90;;;;;;4994446;28;20048;-95
2022/05/07 05:25:43;;;;;;;46.75;32.05;;;12.80;99.90;;;;;;5009988;28;20135;-96
2022/05/07 05:28:11;;;;;;;45.88;32.92;;;12.80;99.90;;;;;;5015561;28;20136;-96
2022/05/07 05:30:38;;;;;;;45.78;33.40;;;12.80;99.90;;;;;;4998715;28;20041;-96
2022/05/07 05:33:08;;;;;;;46.38;33.28;;;12.90;99.90;;;;;;5027811;28;20391;-96
2022/05/07 05:35:35;;;;;;;41.83;30.25;;;12.90;99.90;;;;;;5032809;28;20049;-96
2022/05/07 05:38:02;;;;;;;44.47;33.60;;;12.90;99.90;;;;;;5016206;28;20037;-96
2022/05/07 05:40:29;;;;;;;42.92;30.88;;;12.80;99.90;;;;;;5015683;28;20080;-96
2022/05/07 05:42:55;;;;;;;42.45;31.75;;;13.00;99.90;;;;;;5015835;28;20134;-96
2022/05/07 05:45:22;;;;;;;44.88;32.88;;;12.90;99.90;;;;;;5016768;28;20045;-96
2022/05/07 05:47:49;;;;;;;42.80;31.90;;;13.00;99.90;;;;;;4999924;28;20055;-96
2022/05/07 05:50:16;;;;;;;47.80;33.20;;;13.00;99.90;;;;;;5016568;28;21300;-96
2022/05/07 05:52:48;;;;;;;39.78;31.45;;;13.00;99.90;;;;;;5019841;28;20109;-96
2022/05/07 05:55:15;;;;;;;46.70;32.58;;;13.10;99.90;;;;;;5053096;28;20080;-96
2022/05/07 05:57:44;;;;;;;42.90;31.90;;;13.10;99.90;;;;;;5053886;28;20037;-96
2022/05/07 06:00:10;;;;;;;41.63;30.67;;;13.10;99.90;;;;;;5020997;28;20067;-96
2022/05/07 06:02:37;;;;;;;42.78;31.58;;;13.10;99.90;;;;;;5035795;28;20044;-96
2022/05/07 06:05:04;;;;;;;41.67;30.52;;;13.20;99.90;;;;;;5036969;28;20049;-96
2022/05/07 06:07:31;;;;;;;35.90;28.48;;;13.30;99.90;;;;;;5052669;28;20041;-96
2022/05/07 06:09:58;;;;;;;41.75;28.98;;;13.30;99.90;;;;;;5036869;28;20043;-96
2022/05/07 06:12:24;;;;;;;38.10;28.15;;;13.30;99.90;;;;;;5053760;28;20041;-96
2022/05/07 06:14:54;;;;;;;38.78;29.80;;;13.40;99.90;;;;;;5037707;28;20371;-95
2022/05/07 06:17:21;;;;;;;35.67;27.88;;;13.40;99.90;;;;;;5037016;28;20037;-96
2022/05/07 06:19:47;;;;;;;35.20;29.08;;;13.50;99.90;;;;;;5052056;28;20048;-95
2022/05/07 06:22:13;;;;;;;38.08;28.48;;;13.50;99.90;;;;;;5014437;28;20052;-96
2022/05/07 06:27:34;;;;;;;35.72;29.02;;;13.60;99.90;;;;;;5050330;28;20040;-92
2022/05/07 06:30:05;;;;;;;37.53;29.25;;;13.70;99.90;;;;;;5014303;28;20128;-92
2022/05/07 06:32:35;;;;;;;39.85;29.00;;;13.70;99.90;;;;;;5046198;28;20106;-93
2022/05/07 06:35:06;;;;;;;37.13;26.98;;;13.80;99.90;;;;;;5029706;28;20051;-93
2022/05/07 06:37:33;;;;;;;32.45;27.05;;;13.90;99.90;;;;;;5014380;28;20052;-93
2022/05/07 06:40:00;;;;;;;39.10;28.13;;;14.00;99.90;;;;;;5045957;28;20052;-96
2022/05/07 06:42:27;;;;;;;37.83;28.08;;;14.10;99.90;;;;;;5052926;28;20437;-96
2022/05/07 06:44:56;;;;;;;39.22;28.35;;;14.20;99.90;;;;;;5020236;28;20047;-96
2022/05/07 06:47:26;;;;;;;36.20;27.00;;;14.30;99.90;;;;;;5018413;28;20049;-95
2022/05/07 06:49:52;;;;;;;38.25;28.88;;;14.40;99.90;;;;;;5012636;28;20559;-96
2022/05/07 06:52:18;;;;;;;36.15;27.33;;;14.50;99.90;;;;;;5025208;28;20052;-95
2022/05/07 06:54:44;;;;;;;37.35;27.08;;;14.50;99.90;;;;;;5010252;28;20049;-94
2022/05/07 06:57:11;;;;;;;35.25;27.92;;;14.60;99.90;;;;;;5027809;28;20043;-96
2022/05/07 06:59:38;;;;;;;41.28;29.40;;;14.60;99.90;;;;;;5026507;28;20096;-96
2022/05/07 07:02:04;;;;;;;35.90;27.17;;;14.70;99.90;;;;;;5014420;28;20068;-96
2022/05/07 07:04:30;;;;;;;37.00;27.98;;;14.70;99.90;;;;;;5029823;28;20048;-96
2022/05/07 07:06:57;;;;;;;33.25;26.63;;;14.80;99.90;;;;;;5027249;28;20056;-96
2022/05/07 07:09:25;;;;;;;34.92;26.35;;;14.90;99.90;;;;;;4999189;28;20044;-96
2022/05/07 07:11:51;;;;;;;39.45;27.95;;;14.90;99.90;;;;;;4979958;28;20567;-95
2022/05/07 07:14:20;;;;;;;34.15;27.10;;;15.00;99.90;;;;;;4993739;28;20087;-96
2022/05/07 07:16:46;;;;;;;38.08;28.73;;;15.10;99.90;;;;;;4991914;28;20136;-95
2022/05/07 07:19:16;;;;;;;38.65;28.83;;;15.20;99.90;;;;;;4991716;28;20130;-94
2022/05/07 07:21:43;;;;;;;37.55;27.08;;;15.30;99.90;;;;;;4991546;28;20041;-96
2022/05/07 07:24:09;;;;;;;38.90;28.33;;;15.40;99.90;;;;;;4991362;28;20347;-94
2022/05/07 07:26:35;;;;;;;40.47;29.08;;;15.50;99.90;;;;;;5023502;28;20056;-94
2022/05/07 07:29:02;;;;;;;42.40;28.70;;;15.70;99.90;;;;;;5006991;28;20100;-96
2022/05/07 07:31:28;;;;;;;42.25;31.00;;;15.80;99.90;;;;;;4991561;28;20120;-95
2022/05/07 07:33:54;;;;;;;49.63;31.00;;;15.90;99.90;;;;;;4990590;28;20056;-96
2022/05/07 07:36:20;;;;;;;40.85;28.40;;;15.90;99.90;;;;;;4990878;28;20041;-95
2022/05/07 07:38:46;;;;;;;41.60;29.85;;;16.00;99.90;;;;;;5006646;28;20049;-95
2022/05/07 07:41:12;;;;;;;36.58;27.40;;;16.10;99.90;;;;;;4991048;28;20041;-96
2022/05/07 07:43:40;;;;;;;35.80;26.60;;;16.10;99.90;;;;;;5007628;28;20045;-95
2022/05/07 07:48:52;;;;;;;38.42;27.98;;;16.20;99.90;;;;;;5026595;28;20364;-95
2022/05/07 07:51:20;;;;;;;38.05;27.85;;;16.30;99.90;;;;;;5008610;28;20088;-96
2022/05/07 07:53:49;;;;;;;39.25;28.52;;;16.40;99.90;;;;;;5024752;28;20037;-95
2022/05/07 07:56:16;;;;;;;43.97;29.00;;;16.50;99.90;;;;;;4990850;28;20140;-93
2022/05/07 07:58:42;;;;;;;46.92;31.20;;;16.50;99.90;;;;;;5039067;28;20552;-93
2022/05/07 08:01:08;;;;;;;50.03;33.75;;;16.40;99.90;;;;;;5006812;28;20470;-93
2022/05/07 08:03:34;;;;;;;56.85;37.60;;;16.40;99.90;;;;;;5006950;28;20033;-94
2022/05/07 08:06:00;;;;;;;52.88;37.20;;;16.40;99.90;;;;;;5006591;28;20051;-95
2022/05/07 08:13:56;;;;;;;57.72;35.70;;;16.30;99.90;;;;;;5007828;28;20045;-96
2022/05/07 08:16:24;;;;;;;50.63;34.80;;;16.30;99.90;;;;;;4992767;28;20551;-95
2022/05/07 08:18:51;;;;;;;53.10;35.20;;;16.30;99.90;;;;;;5025991;28;20231;-93
2022/05/07 08:21:17;;;;;;;61.83;36.92;;;16.20;99.90;;;;;;4993980;28;20088;-93
2022/05/07 08:23:43;;;;;;;61.33;39.63;;;16.10;99.90;;;;;;5010679;28;20198;-93
2022/05/07 08:26:10;;;;;;;59.95;40.05;;;16.10;99.90;;;;;;5009944;28;20128;-95
2022/05/07 08:28:38;;;;;;;59.63;39.45;;;16.00;99.90;;;;;;4993193;28;20049;-95
2022/05/07 08:31:05;;;;;;;62.05;40.83;;;16.00;99.90;;;;;;4993440;28;20098;-94
2022/05/07 08:33:32;;;;;;;61.88;39.88;;;16.00;99.90;;;;;;5009968;28;20489;-96
2022/05/07 08:35:59;;;;;;;60.67;39.78;;;16.00;99.90;;;;;;4999544;28;20045;-95
2022/05/07 08:38:25;;;;;;;61.55;39.33;;;16.00;99.90;;;;;;5008501;28;20083;-94
2022/05/07 08:40:52;;;;;;;58.70;37.65;;;16.00;99.90;;;;;;5008751;28;20075;-93
2022/05/07 08:43:19;;;;;;;58.20;36.97;;;16.20;99.90;;;;;;5024905;28;20064;-94
2022/05/07 08:45:45;;;;;;;57.08;37.53;;;16.20;99.90;;;;;;5024923;28;20044;-93
2022/05/07 08:48:12;;;;;;;64.70;41.17;;;16.30;99.90;;;;;;4991278;28;20044;-95
2022/05/07 08:50:42;;;;;;;65.40;40.97;;;16.40;99.90;;;;;;4991745;28;20064;-94
2022/05/07 08:53:09;;;;;;;66.00;40.85;;;16.40;99.90;;;;;;4992228;28;20045;-94
2022/05/07 08:55:36;;;;;;;59.33;36.60;;;16.50;99.90;;;;;;4992473;28;20509;-94
2022/05/07 08:58:02;;;;;;;60.55;38.20;;;16.50;99.90;;;;;;5024731;28;20080;-94
2022/05/07 09:00:29;;;;;;;56.90;36.10;;;16.50;99.90;;;;;;4992296;28;20048;-95
2022/05/07 09:02:57;;;;;;;52.65;34.65;;;16.60;99.90;;;;;;5024400;28;20041;-96
2022/05/07 09:05:36;;;;;;;49.97;31.35;;;16.60;99.90;;;;;;4992916;28;20053;-95
2022/05/07 09:08:03;;;;;;;49.33;33.97;;;16.60;99.90;;;;;;5008307;28;20083;-94
2022/05/07 09:10:35;;;;;;;49.63;33.22;;;16.60;99.90;;;;;;4992397;28;20052;-94
2022/05/07 09:13:10;;;;;;;51.50;32.60;;;16.60;99.90;;;;;;5007470;28;20111;-94
2022/05/07 09:16:11;;;;;;;48.63;32.63;;;16.70;99.90;;;;;;5007347;28;20075;-95
2022/05/07 09:18:37;;;;;;;52.70;34.17;;;16.70;99.90;;;;;;4967361;28;20072;-94
2022/05/07 09:21:24;;;;;;;50.95;33.97;;;16.70;99.90;;;;;;5024078;28;20040;-94
2022/05/07 09:24:06;;;;;;;48.55;33.00;;;16.80;99.90;;;;;;4994075;28;20045;-94
2022/05/07 09:26:43;;;;;;;56.43;34.07;;;16.90;99.90;;;;;;4991469;28;20102;-95
2022/05/07 09:29:11;;;;;;;53.17;33.88;;;16.90;99.90;;;;;;5023716;28;20381;-95
2022/05/07 09:31:41;;;;;;;52.78;34.95;;;16.90;99.90;;;;;;4991542;28;20041;-94
2022/05/07 09:37:01;;;;;;;;;;;17.00;99.90;;;;;;5024452;28;20128;-93
2022/05/07 09:39:34;;;;;;;53.50;35.75;;;17.00;99.90;;;;;;5023667;28;19923;-93
2022/05/07 09:42:06;;;;;;;57.35;37.17;;;17.10;99.90;;;;;;5007602;28;20041;-93
2022/05/07 09:44:34;;;;;;;55.90;35.13;;;17.10;99.90;;;;;;4991068;28;20099;-94
2022/05/07 09:47:00;;;;;;;53.05;34.97;;;17.20;99.90;;;;;;4975240;28;20084;-95
2022/05/07 09:49:28;;;;;;;62.05;36.70;;;17.30;99.90;;;;;;4987241;28;20092;-95
2022/05/07 09:51:57;;;;;;;56.78;36.67;;;17.40;99.90;;;;;;4996694;28;20069;-95
2022/05/07 09:59:55;;;;;;;52.85;33.50;;;17.60;99.90;;;;;;5009041;28;20036;-92
2022/05/07 10:02:48;;;;;;;48.75;32.67;;;17.70;99.90;;;;;;4990588;28;20094;-93
2022/05/07 10:05:22;;;;;;;;;;;17.80;99.90;;;;;;5021480;28;20041;-94
2022/05/07 10:08:03;;;;;;;;;;;17.90;99.90;;;;;;5007420;28;20004;-92
2022/05/07 10:10:35;;;;;;;50.00;31.60;;;18.00;99.90;;;;;;5002837;28;20009;-93
2022/05/07 10:13:05;;;;;;;45.30;30.23;;;18.10;99.90;;;;;;5006326;28;20086;-93
2022/05/07 10:15:31;;;;;;;46.42;30.95;;;18.20;99.90;;;;;;4997443;28;20041;-94
2022/05/07 10:18:02;;;;;;;45.00;30.35;;;18.30;99.90;;;;;;4990003;28;20128;-93
2022/05/07 10:20:49;;;;;;;44.58;29.08;;;18.40;99.90;;;;;;5003417;28;20143;-92
2022/05/07 10:23:28;;;;;;;46.67;32.13;;;18.40;99.90;;;;;;5004448;28;20487;-93
2022/05/07 10:25:58;;;;;;;47.95;31.70;;;18.30;99.90;;;;;;4985701;28;20056;-93
2022/05/07 10:28:38;;;;;;;56.92;34.60;;;18.30;99.90;;;;;;5003711;28;20045;-93
2022/05/07 10:31:15;;;;;;;52.40;33.78;;;18.30;99.90;;;;;;4987182;28;20131;-93
2022/05/07 10:33:41;;;;;;;54.10;34.38;;;18.30;99.90;;;;;;4989123;28;20033;-92
2022/05/07 10:36:09;;;;;;;53.95;34.92;;;18.20;99.90;;;;;;4985479;28;20537;-92
2022/05/07 10:38:37;;;;;;;59.50;36.92;;;18.10;99.90;;;;;;4973907;28;20037;-93
2022/05/07 10:41:19;;;;;;;55.25;36.47;;;18.10;99.90;;;;;;5004307;28;20056;-93
2022/05/07 10:44:02;;;;;;;58.17;34.50;;;18.00;99.90;;;;;;4986304;28;20033;-93
2022/05/07 10:46:42;;;;;;;46.67;29.88;;;18.00;99.90;;;;;;4996288;28;20128;-94
2022/05/07 10:49:08;;;;;;;44.35;29.52;;;17.80;99.90;;;;;;5006187;28;20048;-93
2022/05/07 10:51:37;;;;;;;43.88;28.55;;;17.80;99.90;;;;;;4993065;28;20052;-93
2022/05/07 10:54:24;;;;;;;41.90;27.95;;;17.80;99.90;;;;;;5006571;28;20037;-93
2022/05/07 10:56:55;;;;;;;41.80;25.88;;;17.80;99.90;;;;;;5008604;28;20384;-92
2022/05/07 10:59:23;;;;;;;37.03;25.50;;;17.80;99.90;;;;;;5005910;28;20406;-94
2022/05/07 11:01:50;;;;;;;39.50;23.92;;;17.70;99.90;;;;;;5039006;28;20505;-93
2022/05/07 11:04:22;;;;;;;36.42;24.02;;;17.60;99.90;;;;;;5038859;28;20213;-92
2022/05/07 11:06:50;;;;;;;31.15;22.13;;;17.60;99.90;;;;;;5021410;28;20406;-93
2022/05/07 11:09:18;;;;;;;34.13;21.92;;;17.50;99.90;;;;;;5005671;28;20142;-93
2022/05/07 11:11:46;;;;;;;31.67;20.25;;;17.50;99.90;;;;;;5005310;28;20045;-92
2022/05/07 11:14:35;;;;;;;27.42;18.75;;;17.40;99.90;;;;;;5020793;28;20049;-94
2022/05/07 11:17:04;;;;;;;24.20;16.85;;;17.50;99.90;;;;;;5005599;28;20045;-93
2022/05/07 11:19:34;;;;;;;22.33;15.88;;;17.50;99.90;;;;;;5020627;28;20094;-93
2022/05/07 11:22:03;;;;;;;22.23;16.00;;;17.50;99.90;;;;;;5020814;28;20142;-93
2022/05/07 11:24:31;;;;;;;23.00;15.50;;;17.50;99.90;;;;;;5001893;28;20505;-93
2022/05/07 11:27:03;;;;;;;20.20;13.68;;;17.50;99.90;;;;;;4986494;28;20061;-93
2022/05/07 11:29:30;;;;;;;18.73;11.98;;;17.60;99.90;;;;;;5002519;28;20045;-93
2022/05/07 11:32:01;;;;;;;18.60;11.55;;;17.80;99.90;;;;;;5018396;28;20045;-92
2022/05/07 11:34:38;;;;;;;19.02;11.07;;;18.00;99.90;;;;;;5001662;28;20405;-93
2022/05/07 11:37:11;;;;;;;14.15;9.43;;;18.20;99.90;;;;;;5021813;28;20099;-93
2022/05/07 11:39:53;;;;;;;10.18;7.85;;;18.20;99.90;;;;;;5002003;28;20045;-93
2022/05/07 11:42:38;;;;;;;12.95;8.07;;;18.10;99.90;;;;;;5002060;28;20430;-93
2022/05/07 11:45:31;;;;;;;11.43;8.25;;;17.90;99.90;;;;;;5005284;28;20541;-93
2022/05/07 11:48:14;;;;;;;12.75;9.18;;;17.70;99.90;;;;;;5005044;28;20095;-91
2022/05/07 11:50:54;;;;;;;13.77;9.73;;;17.50;99.90;;;;;;5003878;28;20106;-92
2022/05/07 11:53:22;;;;;;;14.48;10.20;;;17.50;99.90;;;;;;5004099;28;20045;-94
2022/05/07 11:55:49;;;;;;;16.27;10.43;;;17.60;99.90;;;;;;4988306;28;20048;-92
2022/05/07 11:58:21;;;;;;;16.38;10.60;;;17.60;99.90;;;;;;4989238;28;20502;-93
2022/05/07 12:00:50;;;;;;;17.02;10.15;;;17.60;99.90;;;;;;5005466;28;20037;-92
2022/05/07 12:03:23;;;;;;;19.10;10.20;;;17.60;99.90;;;;;;4988821;28;20140;-93
2022/05/07 12:05:51;;;;;;;13.75;9.75;;;17.50;99.90;;;;;;5006035;28;20058;-93
2022/05/07 12:08:19;;;;;;;19.02;10.68;;;17.60;99.90;;;;;;5021339;28;20072;-92
2022/05/07 12:10:47;;;;;;;15.05;10.20;;;17.60;99.90;;;;;;4989270;28;20041;-92
2022/05/07 12:13:15;;;;;;;15.35;10.05;;;17.70;99.90;;;;;;4988562;28;20052;-93
2022/05/07 12:18:27;;;;;;;15.77;9.85;;;18.10;99.90;;;;;;5023754;28;20040;-92
2022/05/07 12:20:54;;;;;;;13.35;10.05;;;18.30;99.90;;;;;;5005090;28;20501;-94
2022/05/07 12:31:52;;;;;;;14.75;11.23;;;18.70;99.90;;;;;;5021246;28;20106;-93
2022/05/07 12:34:19;;;;;;;16.85;12.02;;;18.60;99.90;;;;;;5004346;28;20090;-93
2022/05/07 12:36:45;;;;;;;19.13;12.38;;;18.50;99.90;;;;;;5004704;28;20041;-93
2022/05/07 12:39:11;;;;;;;19.65;13.35;;;18.40;99.90;;;;;;5004160;28;20051;-92
2022/05/07 12:41:42;;;;;;;20.65;15.13;;;18.20;99.90;;;;;;4988079;28;20041;-93
2022/05/07 12:44:07;;;;;;;19.63;14.50;;;18.10;99.90;;;;;;5004319;28;20051;-94
2022/05/07 12:46:34;;;;;;;22.17;15.13;;;18.00;99.90;;;;;;4972329;28;20045;-94
2022/05/07 12:49:01;;;;;;;22.08;16.30;;;17.90;99.90;;;;;;5004280;28;20052;-94
2022/05/07 12:51:27;;;;;;;23.10;16.23;;;17.80;99.90;;;;;;4979224;28;20494;-93
2022/05/07 12:53:54;;;;;;;23.10;15.95;;;17.80;99.90;;;;;;4988211;28;20037;-92
2022/05/07 12:56:22;;;;;;;19.23;13.88;;;17.90;99.90;;;;;;5004669;28;20037;-92
2022/05/07 12:58:50;;;;;;;18.83;13.25;;;18.00;99.90;;;;;;5004446;28;20041;-93
2022/05/07 13:01:16;;;;;;;16.20;11.85;;;18.10;99.90;;;;;;4989650;28;20517;-94
2022/05/07 13:03:43;;;;;;;18.60;12.68;;;18.30;99.90;;;;;;5007346;28;20045;-93
2022/05/07 13:06:09;;;;;;;17.92;12.48;;;18.50;99.90;;;;;;5008000;28;20102;-92
2022/05/07 13:08:36;;;;;;;15.65;11.30;;;18.70;99.90;;;;;;4988860;28;20106;-93
2022/05/07 13:11:02;;;;;;;18.50;12.85;;;18.80;99.90;;;;;;4972529;28;20073;-94
2022/05/07 13:13:28;;;;;;;18.33;11.88;;;19.10;99.90;;;;;;4972262;28;20045;-93
2022/05/07 13:15:54;;;;;;;15.38;11.10;;;19.20;99.90;;;;;;4972216;28;20052;-93